createdAt,value
2018-10-19T00:00:52.823Z,35.92
2018-10-19T00:03:20.865Z,37.63
2018-10-19T00:05:48.926Z,36.63
2018-10-19T00:08:17.024Z,44.45
2018-10-19T00:10:45.270Z,46.48
2018-10-19T00:13:13.355Z,44.60
2018-10-19T00:15:41.613Z,46.60
2018-10-19T00:18:09.821Z,46.92
2018-10-19T00:20:37.884Z,44.15
2018-10-19T00:23:06.053Z,40.17
2018-10-19T00:25:34.133Z,40.20
2018-10-19T00:28:02.153Z,40.12
2018-10-19T00:30:30.182Z,39.13
2018-10-19T00:32:58.361Z,42.73
2018-10-19T00:35:26.590Z,40.40
2018-10-19T00:37:54.795Z,40.28
2018-10-19T00:40:23.008Z,39.78
2018-10-19T00:42:51.069Z,42.27
2018-10-19T00:45:23.206Z,50.57
2018-10-19T00:47:51.406Z,42.55
2018-10-19T00:50:19.549Z,40.03
2018-10-19T00:52:47.661Z,39.00
2018-10-19T00:55:15.899Z,40.28
2018-10-19T00:57:44.126Z,35.20
2018-10-19T01:00:12.365Z,35.90
2018-10-19T01:02:40.551Z,34.98
2018-10-19T01:05:08.901Z,38.08
2018-10-19T01:07:37.067Z,37.90
2018-10-19T01:10:05.160Z,42.53
2018-10-19T01:12:33.730Z,41.05
2018-10-19T01:15:02.023Z,54.30
2018-10-19T01:17:30.092Z,102.13
2018-10-19T01:19:58.305Z,36.65
2018-10-19T01:22:26.346Z,34.80
2018-10-19T01:24:54.653Z,35.63
2018-10-19T01:27:22.913Z,36.13
2018-10-19T01:29:50.994Z,33.20
2018-10-19T01:32:19.180Z,32.50
2018-10-19T01:34:47.609Z,31.75
2018-10-19T01:37:15.964Z,29.27
2018-10-19T01:39:44.093Z,29.23
2018-10-19T01:42:12.185Z,27.98
2018-10-19T01:44:40.446Z,35.28
2018-10-19T01:47:08.676Z,34.67
2018-10-19T01:49:36.693Z,34.40
2018-10-19T01:52:05.277Z,31.10
2018-10-19T01:54:33.458Z,29.70
2018-10-19T01:57:01.667Z,31.00
2018-10-19T01:59:29.925Z,28.95
2018-10-19T02:01:57.973Z,28.80
2018-10-19T02:04:26.108Z,30.65
2018-10-19T02:06:54.232Z,30.37
2018-10-19T02:09:22.422Z,30.15
2018-10-19T02:11:50.565Z,30.35
2018-10-19T02:14:18.641Z,30.17
2018-10-19T02:16:46.929Z,31.80
2018-10-19T02:19:15.130Z,32.55
2018-10-19T02:21:43.608Z,32.73
2018-10-19T02:24:11.774Z,32.08
2018-10-19T02:26:40.473Z,33.40
2018-10-19T02:29:08.773Z,32.78
2018-10-19T02:31:36.922Z,35.28
2018-10-19T02:34:05.488Z,35.85
2018-10-19T02:36:33.641Z,35.83
2018-10-19T02:39:01.994Z,34.85
2018-10-19T02:41:30.336Z,35.50
2018-10-19T02:43:58.690Z,33.48
2018-10-19T02:46:26.794Z,33.85
2018-10-19T02:48:54.918Z,32.95
2018-10-19T02:51:23.222Z,33.20
2018-10-19T02:53:51.555Z,33.20
2018-10-19T02:56:19.573Z,33.58
2018-10-19T02:58:47.809Z,33.45
2018-10-19T03:01:16.025Z,32.83
2018-10-19T03:03:44.166Z,32.40
2018-10-19T03:06:12.276Z,32.70
2018-10-19T03:08:40.485Z,30.12
2018-10-19T03:11:08.629Z,29.15
2018-10-19T03:13:36.716Z,27.90
2018-10-19T03:16:05.085Z,30.15
2018-10-19T03:18:33.204Z,31.33
2018-10-19T03:21:01.356Z,30.80
2018-10-19T03:23:29.611Z,31.30
2018-10-19T03:25:57.761Z,33.40
2018-10-19T03:28:25.864Z,32.95
2018-10-19T03:30:54.192Z,33.75
2018-10-19T03:33:22.310Z,31.37
2018-10-19T03:35:50.621Z,32.73
2018-10-19T03:38:18.781Z,34.48
2018-10-19T03:40:46.856Z,33.28
2018-10-19T03:43:14.941Z,34.55
2018-10-19T03:45:43.193Z,34.75
2018-10-19T03:48:11.581Z,34.78
2018-10-19T03:50:39.811Z,36.08
2018-10-19T03:53:08.169Z,36.17
2018-10-19T03:55:36.413Z,37.15
2018-10-19T03:58:04.862Z,38.58
2018-10-19T04:00:32.973Z,39.78
2018-10-19T04:03:01.081Z,38.63
2018-10-19T04:05:29.117Z,40.73
2018-10-19T04:07:57.178Z,40.20
2018-10-19T04:10:25.268Z,37.85
2018-10-19T04:12:53.528Z,35.92
2018-10-19T04:15:21.878Z,33.75
2018-10-19T04:17:50.086Z,32.35
2018-10-19T04:20:18.316Z,33.40
2018-10-19T04:22:46.355Z,37.58
2018-10-19T04:25:14.440Z,38.50
2018-10-19T04:27:42.606Z,37.73
2018-10-19T04:30:10.689Z,38.88
2018-10-19T04:32:40.067Z,41.90
2018-10-19T04:35:08.222Z,43.87
2018-10-19T04:37:36.328Z,99.77
2018-10-19T04:40:05.096Z,135.43
2018-10-19T04:42:33.204Z,219.20
2018-10-19T04:45:01.459Z,241.95
2018-10-19T04:47:29.572Z,289.02
2018-10-19T04:49:57.703Z,328.07
2018-10-19T04:52:25.908Z,396.48
2018-10-19T04:54:54.291Z,531.77
2018-10-19T04:57:22.680Z,427.50
2018-10-19T04:59:51.025Z,390.52
2018-10-19T05:02:19.137Z,255.25
2018-10-19T05:04:47.295Z,306.85
2018-10-19T05:07:15.574Z,293.57
2018-10-19T05:09:43.934Z,262.03
2018-10-19T05:12:11.989Z,194.40
2018-10-19T05:14:40.821Z,244.72
2018-10-19T05:17:09.021Z,192.28
2018-10-19T05:19:37.172Z,151.68
2018-10-19T05:22:05.620Z,96.63
2018-10-19T05:24:33.813Z,111.92
2018-10-19T05:27:02.097Z,125.72
2018-10-19T05:29:30.481Z,107.52
2018-10-19T05:31:58.588Z,123.20
2018-10-19T05:34:26.716Z,139.50
2018-10-19T05:36:55.121Z,193.93
2018-10-19T05:39:23.240Z,163.70
2018-10-19T05:41:51.605Z,265.63
2018-10-19T05:44:19.710Z,383.63
2018-10-19T05:46:48.003Z,293.65
2018-10-19T05:49:16.259Z,240.57
2018-10-19T05:51:44.773Z,345.05
2018-10-19T05:54:13.165Z,348.80
2018-10-19T05:56:41.384Z,403.43
2018-10-19T05:59:09.825Z,475.45
2018-10-19T06:01:38.202Z,564.40
2018-10-19T06:04:06.607Z,557.83
2018-10-19T06:06:34.716Z,788.55
2018-10-19T06:09:03.115Z,847.08
2018-10-19T06:11:36.116Z,801.82
2018-10-19T06:14:06.662Z,1663.15
2018-10-19T06:16:35.374Z,602.15
2018-10-19T06:19:03.509Z,1470.70
2018-10-19T06:21:31.991Z,1335.40
2018-10-19T06:24:00.083Z,1461.30
2018-10-19T06:26:28.254Z,986.52
2018-10-19T06:28:56.849Z,792.60
2018-10-19T06:31:25.001Z,629.48
2018-10-19T06:33:54.002Z,523.05
2018-10-19T06:36:22.342Z,707.35
2018-10-19T06:38:50.742Z,937.45
2018-10-19T06:41:19.034Z,1044.68
2018-10-19T06:43:47.290Z,657.25
2018-10-19T06:46:15.378Z,788.23
2018-10-19T06:48:43.410Z,1050.30
2018-10-19T06:51:14.633Z,1033.65
2018-10-19T06:53:42.859Z,1258.85
2018-10-19T06:56:11.515Z,1079.63
2018-10-19T06:58:47.381Z,690.77
2018-10-19T07:01:25.123Z,822.52
2018-10-19T07:03:56.045Z,398.87
2018-10-19T07:06:26.340Z,790.98
2018-10-19T07:08:57.175Z,808.75
2018-10-19T07:11:28.976Z,736.28
2018-10-19T07:13:59.925Z,704.45
2018-10-19T07:16:35.427Z,561.30
2018-10-19T07:19:06.667Z,518.30
2018-10-19T07:21:34.973Z,347.23
2018-10-19T07:24:03.151Z,496.80
2018-10-19T07:26:31.243Z,604.48
2018-10-19T07:28:59.656Z,500.17
2018-10-19T07:31:27.813Z,495.40
2018-10-19T07:33:55.896Z,638.22
2018-10-19T07:36:24.206Z,487.98
2018-10-19T07:41:49.863Z,405.70
2018-10-19T07:44:17.914Z,425.50
2018-10-19T07:46:46.171Z,310.95
2018-10-19T07:49:14.280Z,249.45
2018-10-19T07:51:42.544Z,325.63
2018-10-19T07:54:10.836Z,321.25
2018-10-19T07:56:38.924Z,237.17
2018-10-19T07:59:07.397Z,251.90
2018-10-19T08:01:35.451Z,294.07
2018-10-19T08:04:03.561Z,209.05
2018-10-19T08:06:31.691Z,205.37
2018-10-19T08:08:59.777Z,196.85
2018-10-19T08:11:28.119Z,173.97
2018-10-19T08:13:56.161Z,175.75
2018-10-19T08:16:24.291Z,169.60
2018-10-19T08:18:52.385Z,165.03
2018-10-19T08:21:20.421Z,134.25
2018-10-19T08:23:48.640Z,130.30
2018-10-19T08:26:16.725Z,128.72
2018-10-19T08:28:44.873Z,154.72
2018-10-19T08:31:13.129Z,136.82
2018-10-19T08:33:41.340Z,169.35
2018-10-19T08:36:09.510Z,149.77
2018-10-19T08:38:37.559Z,146.37
2018-10-19T08:41:05.710Z,138.40
2018-10-19T08:43:33.700Z,160.48
2018-10-19T08:46:07.410Z,134.40
2018-10-19T08:48:35.805Z,128.05
2018-10-19T08:51:04.203Z,93.55
2018-10-19T08:53:32.408Z,86.97
2018-10-19T08:56:00.446Z,84.07
2018-10-19T08:58:29.054Z,89.47
2018-10-19T09:00:57.200Z,83.42
2018-10-19T09:03:25.358Z,89.53
2018-10-19T09:05:53.463Z,87.67
2018-10-19T09:08:21.594Z,91.22
2018-10-19T09:10:49.714Z,90.10
2018-10-19T09:13:17.853Z,87.47
2018-10-19T09:15:46.026Z,86.12
2018-10-19T09:18:14.106Z,91.85
2018-10-19T09:20:42.303Z,100.13
2018-10-19T09:23:10.512Z,98.50
2018-10-19T09:25:38.832Z,100.07
2018-10-19T09:28:06.885Z,97.27
2018-10-19T09:30:35.085Z,99.10
2018-10-19T09:33:03.418Z,97.87
2018-10-19T09:35:31.541Z,101.27
2018-10-19T09:37:59.628Z,99.15
2018-10-19T09:40:27.904Z,97.65
2018-10-19T09:42:56.078Z,100.35
2018-10-19T09:45:24.167Z,102.90
2018-10-19T09:47:52.185Z,95.83
2018-10-19T09:50:20.282Z,99.43
2018-10-19T09:52:48.327Z,99.67
2018-10-19T09:55:16.503Z,102.93
2018-10-19T09:57:44.706Z,105.70
2018-10-19T10:00:18.580Z,105.35
2018-10-19T10:02:47.548Z,104.53
2018-10-19T10:05:15.646Z,105.63
2018-10-19T10:07:43.963Z,109.05
2018-10-19T10:10:12.136Z,104.95
2018-10-19T10:12:40.312Z,107.60
2018-10-19T10:15:08.491Z,108.67
2018-10-19T10:17:36.476Z,112.85
2018-10-19T10:20:04.933Z,108.60
2018-10-19T10:22:33.124Z,109.22
2018-10-19T10:25:01.435Z,107.10
2018-10-19T10:27:29.586Z,104.17
2018-10-19T10:29:57.634Z,105.90
2018-10-19T10:32:25.889Z,100.35
2018-10-19T10:34:54.180Z,99.50
2018-10-19T10:37:22.485Z,99.60
2018-10-19T10:39:50.662Z,96.45
2018-10-19T10:42:18.786Z,97.02
2018-10-19T10:44:47.168Z,95.65
2018-10-19T10:47:15.395Z,94.67
2018-10-19T10:49:43.571Z,96.12
2018-10-19T10:52:11.669Z,97.70
2018-10-19T10:54:39.765Z,95.05
2018-10-19T10:57:08.169Z,92.22
2018-10-19T10:59:36.244Z,92.35
2018-10-19T11:02:04.645Z,93.07
2018-10-19T11:04:32.689Z,92.20
2018-10-19T11:07:00.841Z,91.05
2018-10-19T11:09:28.857Z,90.47
2018-10-19T11:11:57.021Z,90.95
2018-10-19T11:14:25.218Z,88.40
2018-10-19T11:16:53.422Z,88.10
2018-10-19T11:19:21.546Z,88.20
2018-10-19T11:21:49.853Z,84.97
2018-10-19T11:24:18.020Z,84.45
2018-10-19T11:26:46.126Z,82.80
2018-10-19T11:29:14.235Z,80.90
2018-10-19T11:31:42.344Z,77.67
2018-10-19T11:34:10.554Z,79.80
2018-10-19T11:36:38.748Z,77.85
2018-10-19T11:39:08.146Z,76.05
2018-10-19T11:41:36.376Z,77.55
2018-10-19T11:44:04.633Z,75.80
2018-10-19T11:46:32.833Z,75.92
2018-10-19T11:49:01.162Z,75.47
2018-10-19T11:51:29.380Z,74.77
2018-10-19T11:53:57.533Z,77.73
2018-10-19T11:56:25.643Z,77.30
2018-10-19T11:58:53.679Z,76.17
2018-10-19T12:01:22.019Z,77.60
2018-10-19T12:03:50.037Z,78.15
2018-10-19T12:06:18.336Z,74.50
2018-10-19T12:08:46.486Z,68.90
2018-10-19T12:11:14.681Z,70.52
2018-10-19T12:13:42.744Z,70.35
2018-10-19T12:16:10.989Z,70.37
2018-10-19T12:18:39.119Z,73.33
2018-10-19T12:21:07.529Z,71.02
2018-10-19T12:23:35.637Z,70.28
2018-10-19T12:26:04.094Z,68.30
2018-10-19T12:28:32.188Z,69.75
2018-10-19T12:31:00.341Z,68.40
2018-10-19T12:33:28.465Z,67.58
2018-10-19T12:35:56.610Z,70.47
2018-10-19T12:38:24.797Z,66.80
2018-10-19T12:40:53.028Z,65.97
2018-10-19T12:43:21.181Z,69.60
2018-10-19T12:46:28.244Z,69.33
2018-10-19T12:48:56.753Z,66.80
2018-10-19T12:51:24.884Z,71.77
2018-10-19T12:53:53.149Z,72.55
2018-10-19T12:56:21.821Z,72.40
2018-10-19T12:58:50.826Z,71.45
2018-10-19T13:01:19.459Z,69.32
2018-10-19T13:03:47.540Z,68.28
2018-10-19T13:06:15.581Z,66.65
2018-10-19T13:08:43.891Z,67.72
2018-10-19T13:11:11.936Z,68.80
2018-10-19T13:13:40.245Z,69.70
2018-10-19T13:16:08.544Z,76.00
2018-10-19T13:18:36.672Z,73.92
2018-10-19T13:21:04.892Z,75.08
2018-10-19T13:23:33.457Z,69.42
2018-10-19T13:26:01.846Z,67.65
2018-10-19T13:28:30.235Z,67.12
2018-10-19T13:30:58.402Z,65.85
2018-10-19T13:33:26.883Z,66.70
2018-10-19T13:35:55.072Z,65.40
2018-10-19T13:38:23.609Z,67.87
2018-10-19T13:40:52.654Z,64.45
2018-10-19T13:43:21.002Z,65.47
2018-10-19T13:45:49.438Z,63.98
2018-10-19T13:48:17.808Z,64.62
2018-10-19T13:50:45.971Z,56.65
2018-10-19T13:53:14.148Z,59.95
2018-10-19T13:55:42.394Z,60.03
2018-10-19T13:58:10.639Z,62.23
2018-10-19T14:00:38.754Z,61.80
2018-10-19T14:03:06.821Z,59.77
2018-10-19T14:05:34.996Z,57.58
2018-10-19T14:08:03.070Z,60.10
2018-10-19T14:10:31.326Z,61.50
2018-10-19T14:12:59.528Z,64.00
2018-10-19T14:15:27.677Z,63.42
2018-10-19T14:17:55.764Z,64.20
2018-10-19T14:20:24.015Z,65.92
2018-10-19T14:22:52.160Z,65.85
2018-10-19T14:25:20.277Z,67.05
2018-10-19T14:27:48.369Z,64.05
2018-10-19T14:30:17.542Z,67.60
2018-10-19T14:32:45.649Z,66.17
2018-10-19T14:38:05.640Z,66.35
2018-10-19T14:40:33.849Z,66.92
2018-10-19T14:43:02.105Z,67.70
2018-10-19T14:45:30.168Z,66.62
2018-10-19T14:47:58.319Z,67.27
2018-10-19T14:50:26.415Z,68.13
2018-10-19T14:52:54.621Z,65.60
2018-10-19T14:55:22.792Z,67.82
2018-10-19T14:57:50.928Z,65.92
2018-10-19T15:00:19.378Z,65.57
2018-10-19T15:02:47.713Z,65.05
2018-10-19T15:05:17.369Z,64.97
2018-10-19T15:07:45.572Z,66.72
2018-10-19T15:10:15.725Z,64.30
2018-10-19T15:12:44.076Z,64.42
2018-10-19T15:15:14.472Z,64.20
2018-10-19T15:17:42.722Z,63.17
2018-10-19T15:20:11.461Z,62.35
2018-10-19T15:22:39.672Z,62.90
2018-10-19T15:25:08.731Z,61.17
2018-10-19T15:27:37.708Z,62.15
2018-10-19T15:30:07.059Z,61.30
2018-10-19T15:32:35.345Z,62.27
2018-10-19T15:35:03.509Z,59.35
2018-10-19T15:37:31.621Z,59.25
2018-10-19T15:39:59.764Z,59.08
2018-10-19T15:42:27.833Z,57.75
2018-10-19T15:44:55.965Z,56.37
2018-10-19T15:47:25.885Z,58.98
2018-10-19T15:49:55.275Z,55.78
2018-10-19T15:52:23.274Z,57.15
2018-10-19T15:54:51.935Z,57.83
2018-10-19T15:57:20.455Z,57.98
2018-10-19T15:59:48.874Z,57.85
2018-10-19T16:02:17.277Z,57.90
2018-10-19T16:04:45.858Z,56.60
2018-10-19T16:07:14.288Z,57.33
2018-10-19T16:09:42.489Z,58.90
2018-10-19T16:12:10.583Z,57.90
2018-10-19T16:14:38.709Z,53.33
2018-10-19T16:17:07.012Z,54.40
2018-10-19T16:19:35.074Z,54.85
2018-10-19T16:22:03.152Z,57.27
2018-10-19T16:24:31.324Z,58.17
2018-10-19T16:26:59.530Z,59.03
2018-10-19T16:29:27.581Z,58.80
2018-10-19T16:31:55.731Z,58.75
2018-10-19T16:34:23.985Z,59.15
2018-10-19T16:36:52.084Z,60.50
2018-10-19T16:39:20.137Z,58.83
2018-10-19T16:41:48.435Z,58.23
2018-10-19T16:44:16.852Z,61.37
2018-10-19T16:46:44.917Z,60.70
2018-10-19T16:49:13.161Z,61.73
2018-10-19T16:51:41.353Z,62.67
2018-10-19T16:54:09.553Z,62.98
2018-10-19T16:56:37.616Z,60.70
2018-10-19T16:59:05.796Z,63.00
2018-10-19T17:01:33.853Z,62.05
2018-10-19T17:04:01.965Z,64.00
2018-10-19T17:06:29.997Z,64.97
2018-10-19T17:08:58.216Z,65.30
2018-10-19T17:11:26.377Z,62.60
2018-10-19T17:13:54.628Z,64.45
2018-10-19T17:16:22.814Z,66.47
2018-10-19T17:18:51.119Z,67.62
2018-10-19T17:21:19.237Z,65.72
2018-10-19T17:23:47.422Z,69.90
2018-10-19T17:26:15.491Z,69.30
2018-10-19T17:28:43.592Z,72.25
2018-10-19T17:31:11.930Z,70.67
2018-10-19T17:33:40.433Z,71.28
2018-10-19T17:36:08.706Z,67.58
2018-10-19T17:38:36.925Z,68.80
2018-10-19T17:41:05.381Z,70.45
2018-10-19T17:43:33.651Z,72.97
2018-10-19T17:46:01.735Z,71.77
2018-10-19T17:48:29.885Z,72.00
2018-10-19T17:50:58.076Z,79.40
2018-10-19T17:53:26.229Z,78.60
2018-10-19T17:55:54.428Z,72.80
2018-10-19T17:58:22.506Z,78.67
2018-10-19T18:00:50.663Z,83.42
2018-10-19T18:03:18.677Z,73.02
2018-10-19T18:05:46.703Z,78.33
2018-10-19T18:08:15.017Z,75.42
2018-10-19T18:10:43.267Z,82.82
2018-10-19T18:13:11.354Z,77.25
2018-10-19T18:15:39.593Z,78.87
2018-10-19T18:18:07.666Z,77.97
2018-10-19T18:20:35.996Z,75.62
2018-10-19T18:23:04.265Z,77.08
2018-10-19T18:25:32.241Z,83.45
2018-10-19T18:28:00.263Z,75.90
2018-10-19T18:30:28.370Z,81.42
2018-10-19T18:32:56.546Z,79.10
2018-10-19T18:35:24.877Z,75.05
2018-10-19T18:37:53.158Z,84.00
2018-10-19T18:40:21.358Z,82.95
2018-10-19T18:42:49.470Z,77.85
2018-10-19T18:45:17.620Z,82.45
2018-10-19T18:47:45.915Z,85.80
2018-10-19T18:50:14.188Z,87.53
2018-10-19T18:52:42.144Z,93.43
2018-10-19T18:55:10.308Z,94.47
2018-10-19T18:57:38.390Z,80.35
2018-10-19T19:00:08.800Z,74.30
2018-10-19T19:02:36.901Z,81.22
2018-10-19T19:05:05.236Z,80.67
2018-10-19T19:07:33.239Z,77.42
2018-10-19T19:10:06.816Z,85.20
2018-10-19T19:12:34.989Z,92.67
2018-10-19T19:15:03.212Z,90.80
2018-10-19T19:17:31.376Z,88.70
2018-10-19T19:20:04.992Z,95.83
2018-10-19T19:22:33.145Z,98.42
2018-10-19T19:25:06.769Z,93.47
2018-10-19T19:27:34.832Z,73.72
2018-10-19T19:30:03.020Z,80.12
2018-10-19T19:32:31.176Z,71.30
2018-10-19T19:34:59.265Z,71.87
2018-10-19T19:37:27.447Z,90.45
2018-10-19T19:39:55.492Z,102.65
2018-10-19T19:42:29.227Z,83.03
2018-10-19T19:44:57.260Z,87.45
2018-10-19T19:47:30.889Z,85.97
2018-10-19T19:50:00.522Z,86.90
2018-10-19T19:52:28.661Z,95.22
2018-10-19T19:54:56.769Z,99.97
2018-10-19T19:57:24.820Z,93.17
2018-10-19T19:59:53.305Z,100.97
2018-10-19T20:02:21.369Z,102.00
2018-10-19T20:04:49.672Z,106.00
2018-10-19T20:07:17.713Z,102.85
2018-10-19T20:09:46.122Z,106.70
2018-10-19T20:12:14.290Z,101.70
2018-10-19T20:14:42.463Z,82.82
2018-10-19T20:17:10.580Z,88.70
2018-10-19T20:19:38.700Z,82.62
2018-10-19T20:22:06.876Z,69.92
2018-10-19T20:24:37.394Z,73.75
2018-10-19T20:27:05.788Z,62.62
2018-10-19T20:29:34.208Z,64.82
2018-10-19T20:32:02.333Z,83.33
2018-10-19T20:34:30.449Z,84.80
2018-10-19T20:36:58.597Z,81.82
2018-10-19T20:39:26.782Z,97.08
2018-10-19T20:41:54.942Z,81.30
2018-10-19T20:44:23.033Z,78.45
2018-10-19T20:46:51.185Z,78.57
2018-10-19T20:49:21.023Z,74.40
2018-10-19T20:51:49.681Z,76.25
2018-10-19T20:54:17.772Z,74.72
2018-10-19T20:56:45.941Z,70.65
2018-10-19T20:59:14.043Z,72.92
2018-10-19T21:01:42.128Z,79.83
2018-10-19T21:04:10.260Z,79.60
2018-10-19T21:06:38.424Z,85.95
2018-10-19T21:09:08.539Z,92.85
2018-10-19T21:11:37.174Z,78.62
2018-10-19T21:14:05.787Z,99.72
2018-10-19T21:16:34.024Z,146.87
2018-10-19T21:19:02.089Z,165.95
2018-10-19T21:21:30.693Z,182.27
2018-10-19T21:23:58.742Z,134.80
2018-10-19T21:26:27.119Z,90.53
2018-10-19T21:28:55.326Z,79.03
2018-10-19T21:31:23.369Z,76.72
2018-10-19T21:34:04.464Z,77.60
2018-10-19T21:36:32.505Z,75.13
2018-10-19T21:39:00.615Z,80.17
2018-10-19T21:41:28.791Z,94.80
2018-10-19T21:43:57.848Z,88.12
2018-10-19T21:46:25.843Z,90.50
2018-10-19T21:48:53.907Z,83.92
2018-10-19T21:51:33.065Z,75.57
2018-10-19T21:54:03.367Z,75.37
2018-10-19T21:56:33.728Z,70.90
2018-10-19T21:59:04.004Z,61.75
2018-10-19T22:01:43.374Z,54.85
2018-10-19T22:04:14.267Z,57.13
2018-10-19T22:06:44.956Z,66.80
2018-10-19T22:09:15.086Z,69.10
2018-10-19T22:11:43.106Z,73.52
2018-10-19T22:14:11.413Z,71.50
2018-10-19T22:16:40.113Z,71.40
2018-10-19T22:19:09.134Z,89.53
2018-10-19T22:21:37.343Z,85.22
2018-10-19T22:24:06.385Z,95.35
2018-10-19T22:26:34.627Z,99.40
2018-10-19T22:29:02.737Z,93.13
2018-10-19T22:31:30.729Z,95.17
2018-10-19T22:33:58.848Z,105.10
2018-10-19T22:36:27.141Z,116.05
2018-10-19T22:38:55.314Z,103.53
2018-10-19T22:41:23.397Z,102.58
2018-10-19T22:43:51.531Z,101.90
2018-10-19T22:46:19.839Z,96.45
2018-10-19T22:48:48.009Z,100.05
2018-10-19T22:51:16.175Z,100.57
2018-10-19T22:53:44.340Z,102.05
2018-10-19T22:56:12.584Z,101.07
2018-10-19T22:58:40.908Z,107.30
2018-10-19T23:01:09.121Z,106.70
2018-10-19T23:03:37.411Z,90.90
2018-10-19T23:06:05.664Z,107.15
2018-10-19T23:08:33.644Z,99.83
2018-10-19T23:11:01.737Z,100.02
2018-10-19T23:13:29.776Z,93.52
2018-10-19T23:15:57.944Z,95.17
2018-10-19T23:18:26.003Z,89.50
2018-10-19T23:20:54.086Z,93.62
2018-10-19T23:23:22.159Z,96.30
2018-10-19T23:25:50.445Z,87.33
2018-10-19T23:28:18.601Z,90.95
2018-10-19T23:30:46.961Z,88.72
2018-10-19T23:33:15.132Z,85.57
2018-10-19T23:35:43.253Z,80.45
2018-10-19T23:38:11.414Z,79.05
2018-10-19T23:40:39.604Z,76.28
2018-10-19T23:43:07.828Z,76.53
2018-10-19T23:45:36.106Z,82.00
2018-10-19T23:48:04.513Z,125.25
2018-10-19T23:50:32.797Z,107.60
2018-10-19T23:53:00.914Z,97.27
2018-10-19T23:55:29.132Z,129.10
2018-10-19T23:57:57.545Z,156.95
